Flight Track Log - Related Links

Times and Time Zones

All times are in EDT time to prevent confusion due to time zone crossing. See the SWA896 flight status page for this flight to view local times or setup timezone preferences in your user account.

Time Position Orientation Groundspeed Altitude Reporting Facility
EDT Latitude Longitude Course Direction KTS MPH feet Rate Location/Type
Thu 01:54:53 PM 36.0758 -115.1764 271° West 199 229 3,500  Level Los Angeles Center
Thu 01:55:11 PM 36.0761 -115.1975 271° West 190 219 3,900 1,808 Climbing Los Angeles Center
Thu 01:56:06 PM 36.0614 -115.2564 253° West 238 274 5,700 2,051 Climbing Los Angeles Center
Thu 01:57:08 PM 35.9889 -115.2925 202° Southwest 278 320 7,900 2,438 Climbing Los Angeles Center
Thu 01:58:14 PM 35.9192 -115.3711 222° Southwest 317 365 10,900 2,419 Climbing Los Angeles Center
Thu 01:59:12 PM 35.9139 -115.4758 266° West 333 383 12,900 2,550 Climbing Los Angeles Center
Thu 02:00:14 PM 35.9086 -115.6158 267° West 370 426 16,000 2,880 Climbing Los Angeles Center
Thu 02:01:17 PM 35.9033 -115.7572 267° West 383 441 18,900 2,448 Climbing Los Angeles Center
Thu 02:02:19 PM 35.8989 -115.8950 268° West 401 461 21,100 2,129 Climbing Los Angeles Center
Thu 02:03:21 PM 35.9444 -116.0261 293° West 410 472 23,300 1,887 Climbing Los Angeles Center
Thu 02:04:23 PM 36.0172 -116.1097 317° Northwest 410 472 25,000 1,645 Climbing Los Angeles Center
Thu 02:05:25 PM 36.1103 -116.2161 317° Northwest 419 482 26,700 1,597 Climbing Los Angeles Center
Thu 02:06:27 PM 36.1978 -116.3169 317° Northwest 429 494 28,300 1,742 Climbing Los Angeles Center
Thu 02:07:29 PM 36.3031 -116.4392 317° Northwest 433 498 30,300 1,645 Climbing Los Angeles Center
Thu 02:08:31 PM 36.3906 -116.5419 317° Northwest 435 501 31,700 823 Climbing Los Angeles Center
Thu 02:09:33 PM 36.4781 -116.6425 317° Northwest 432 497 32,000 145 Climbing Los Angeles Center
Thu 02:10:35 PM 36.5617 -116.7408 317° Northwest 434 499 32,000  Level Los Angeles Center
Thu 02:11:37 PM 36.6836 -116.8364 328° Northwest 433 498 32,000  Level Los Angeles Center
Thu 02:12:40 PM 36.7700 -116.9022 329° Northwest 433 498 32,000  Level Los Angeles Center
Thu 02:13:42 PM 36.8889 -116.9933 329° Northwest 431 496 32,000  Level Los Angeles Center
Thu 02:14:06 PM 36.9294 -117.0269 326° Northwest 431 496 32,000  Level Oakland Center
Thu 02:15:07 PM 37.0317 -117.1050 329° Northwest 431 496 32,000  Level Oakland Center
Thu 02:16:09 PM 37.1350 -117.1850 328° Northwest 433 498 32,000  Level Oakland Center
Thu 02:17:11 PM 37.2381 -117.2650 328° Northwest 434 499 32,000  Level Oakland Center
Thu 02:18:12 PM 37.3386 -117.3472 327° Northwest 430 495 32,000  Level Oakland Center
Thu 02:19:14 PM 37.4328 -117.4933 309° West 446 513 32,000  Level Oakland Center
Thu 02:20:15 PM 37.5117 -117.6111 310° West 441 507 32,000  Level Oakland Center
Thu 02:21:17 PM 37.5894 -117.7303 309° West 439 505 32,000  Level Oakland Center
Thu 02:22:19 PM 37.6672 -117.8503 309° West 440 506 32,000  Level Oakland Center
Thu 02:23:20 PM 37.7444 -117.9692 309° West 438 504 32,000  Level Oakland Center
Thu 02:24:22 PM 37.8225 -118.0894 309° West 439 505 32,000  Level Oakland Center
Thu 02:25:23 PM 37.8983 -118.2089 309° West 436 502 32,000  Level Oakland Center
Thu 02:26:25 PM 37.9750 -118.3278 309° West 434 499 32,000  Level Oakland Center
Thu 02:27:27 PM 38.0503 -118.4456 309° West 431 496 32,000 -341 Level Oakland Center
Thu 02:28:28 PM 38.1256 -118.5650 309° West 431 496 31,300 -780 Descending Oakland Center
Thu 02:29:30 PM 38.2028 -118.6861 309° West 430 495 30,400 -629 Descending Oakland Center
Thu 02:30:32 PM 38.2933 -118.8292 309° West 432 497 30,000 -439 Descending Oakland Center
Thu 02:31:33 PM 38.3608 -118.9567 304° West 436 502 29,500 -732 Descending Oakland Center
Thu 02:32:35 PM 38.4067 -119.1039 292° West 444 511 28,500 -968 Descending Oakland Center
Thu 02:33:37 PM 38.4553 -119.2522 293° West 451 519 27,500 -976 Descending Oakland Center
Thu 02:34:38 PM 38.5008 -119.3975 292° West 441 507 26,500 -976 Descending Oakland Center
Thu 02:35:40 PM 38.5456 -119.5414 292° West 435 501 25,500 -1,016 Descending Oakland Center
Thu 02:36:42 PM 38.5908 -119.6831 292° West 430 495 24,400 -732 Descending Oakland Center
Thu 02:37:43 PM 38.6378 -119.8314 292° West 426 490 24,000 -439 Descending Oakland Center
Thu 02:38:45 PM 38.6811 -119.9717 292° West 425 489 23,500 -732 Descending Oakland Center
Thu 02:39:46 PM 38.7236 -120.1117 291° West 423 487 22,500 -1,463 Descending Oakland Center
Thu 02:40:48 PM 38.7578 -120.2517 287° West 415 478 20,500 -2,323 Descending Oakland Center
Thu 02:41:50 PM 38.8083 -120.4092 292° West 400 460 17,700 -2,195 Descending Oakland Center
Thu 02:42:51 PM 38.8483 -120.5361 292° West 388 447 16,000 -878 Descending Oakland Center
Thu 02:43:53 PM 38.8867 -120.6592 292° West 376 433 15,900 -1,073 Descending Oakland Center
Thu 02:44:54 PM 38.9256 -120.7828 292° West 376 433 13,800 -2,000 Descending Oakland Center
Thu 02:45:56 PM 38.9625 -120.9025 292° West 365 420 11,800 -1,854 Descending Oakland Center
Thu 02:46:57 PM 38.9869 -121.0203 285° West 355 409 10,000 -878 Descending Oakland Center
Thu 02:47:59 PM 38.9761 -121.1256 262° West 298 343 10,000 -300 Level Oakland Center
Thu 02:48:37 PM 38.9833 -121.2000 277° West 284 327 9,500 -1,224 Descending Northern Cal TRACON
Thu 02:49:37 PM 38.9667 -121.3000 258° West 269 310 8,000 -1,810 Descending Northern Cal TRACON
Thu 02:50:43 PM 38.9667 -121.4167 270° West 269 310 5,700 -1,952 Descending Northern Cal TRACON
Thu 02:51:43 PM 38.9167 -121.5000 232° Southwest 272 313 3,900 -1,650 Descending Northern Cal TRACON
Thu 02:52:43 PM 38.8667 -121.5500 218° Southwest 264 304 2,400 -1,000 Descending Northern Cal TRACON
Thu 02:53:43 PM 38.8167 -121.6000 218° Southwest 246 283 1,900 -600 Descending Northern Cal TRACON
Thu 02:54:43 PM 38.7667 -121.6000 180° South 167 192 1,200 -750 Descending Northern Cal TRACON
Thu 02:55:43 PM 38.7167 -121.6000 180° South 150 173 400 -800 Descending Northern Cal TRACON
Thu 02:58:00 PM 38.6954 -121.5908 218° Southwest  Level Estimated
Thu 03:05:00 PM 38.6954 -121.5908 218° Southwest  Level Estimated

Login

Don't have an account? Register now (free) for customized features, flight alerts, and more!